Time;durP1;ratioP1;P1;durP2;ratioP2;P2;SDS_P1;SDS_P2;PMS_P1;PMS_P2;Temp;Humidity;BMP_temperature;BMP_pressure;BME280_temperature;BME280_humidity;BME280_pressure;Samples;Min_cycle;Max_cycle;Signal;HPM_P1;HPM_P2
2023/05/12 00:02:06;;;;;;;4.30;3.30;;;;;;;8.68;57.10;96839.37;109153;1273;22501;-83
2023/05/12 00:04:39;;;;;;;4.30;3.40;;;;;;;8.71;57.22;96835.38;109134;1273;22521;-84
2023/05/12 00:07:11;;;;;;;6.70;3.10;;;;;;;8.71;57.14;96831.45;109145;1266;22516;-83
2023/05/12 00:09:42;;;;;;;5.50;3.70;;;;;;;8.66;57.10;96835.46;109178;1270;22575;-83
2023/05/12 00:12:13;;;;;;;4.70;3.40;;;;;;;8.59;57.21;96834.02;109140;1266;24202;-83
2023/05/12 00:14:44;;;;;;;7.50;3.90;;;;;;;8.59;57.56;96834.33;109141;1273;22557;-83
2023/05/12 00:17:15;;;;;;;4.70;3.00;;;;;;;8.49;57.52;96833.77;109129;1266;24245;-83
2023/05/12 00:19:47;;;;;;;6.90;4.20;;;;;;;8.44;57.58;96833.91;109086;1266;22468;-84
2023/05/12 00:22:18;;;;;;;6.70;3.40;;;;;;;8.43;57.72;96834.73;109157;1266;25447;-83
2023/05/12 00:24:49;;;;;;;5.40;3.40;;;;;;;8.45;57.76;96835.97;109131;1270;22765;-83
2023/05/12 00:27:19;;;;;;;6.00;3.60;;;;;;;8.43;57.86;96835.91;109138;1265;25408;-83
2023/05/12 00:29:50;;;;;;;5.90;3.60;;;;;;;8.32;58.09;96838.48;109153;1273;22514;-83
2023/05/12 00:32:22;;;;;;;4.90;3.70;;;;;;;8.22;58.15;96836.27;109110;1266;24190;-84
2023/05/12 00:34:53;;;;;;;4.80;3.30;;;;;;;8.24;58.44;96834.95;109159;1273;22571;-83
2023/05/12 00:37:24;;;;;;;5.20;3.10;;;;;;;8.25;58.51;96835.59;109117;1273;24204;-83
2023/05/12 00:39:55;;;;;;;4.20;3.10;;;;;;;8.28;58.70;96837.13;109118;1273;24494;-83
2023/05/12 00:42:26;;;;;;;4.70;3.20;;;;;;;8.29;58.57;96837.77;109112;1273;23806;-83
2023/05/12 00:44:57;;;;;;;4.30;3.30;;;;;;;8.24;58.63;96835.75;109140;1266;25411;-83
2023/05/12 00:47:29;;;;;;;4.90;3.20;;;;;;;8.21;58.91;96835.00;109128;1250;23207;-83
2023/05/12 00:50:03;;;;;;;5.40;3.60;;;;;;;8.22;58.88;96841.40;109133;1273;22531;-83
2023/05/12 00:52:36;;;;;;;4.00;3.30;;;;;;;8.18;58.81;96845.72;109133;1273;23697;-83
2023/05/12 00:55:08;;;;;;;5.70;3.60;;;;;;;8.15;59.05;96837.64;109130;1273;23267;-83
2023/05/12 00:57:40;;;;;;;6.90;3.60;;;;;;;8.13;59.10;96835.73;109130;1250;22637;-84
2023/05/12 01:00:12;;;;;;;5.60;3.50;;;;;;;8.16;59.25;96837.34;109170;1262;22556;-83
2023/05/12 01:02:44;;;;;;;4.50;3.70;;;;;;;8.18;59.24;96836.67;109118;1273;22580;-84
2023/05/12 01:05:15;;;;;;;8.80;3.90;;;;;;;8.18;59.29;96841.23;109137;1266;22528;-83
2023/05/12 01:07:48;;;;;;;5.50;3.70;;;;;;;8.14;59.37;96844.23;109093;1273;25514;-83
2023/05/12 01:10:22;;;;;;;6.00;3.80;;;;;;;8.10;59.70;96842.44;109114;1250;22533;-83
2023/05/12 01:12:53;;;;;;;5.80;3.70;;;;;;;8.12;60.09;96844.34;109100;1268;22539;-83
2023/05/12 01:15:24;;;;;;;5.50;3.50;;;;;;;8.04;59.81;96849.54;109060;1274;22511;-83
2023/05/12 01:18:02;;;;;;;6.20;3.60;;;;;;;7.93;59.90;96850.20;109092;1268;22470;-84
2023/05/12 01:20:34;;;;;;;5.00;3.70;;;;;;;7.72;60.11;96850.70;109087;1268;22542;-84
2023/05/12 01:23:06;;;;;;;4.20;3.40;;;;;;;7.62;60.65;96853.71;109141;1266;25432;-83
2023/05/12 01:25:39;;;;;;;5.10;3.50;;;;;;;7.64;60.72;96849.98;109154;1265;23427;-83
2023/05/12 01:28:13;;;;;;;5.40;3.50;;;;;;;7.72;61.05;96850.02;109104;1270;22608;-83
2023/05/12 01:30:45;;;;;;;4.20;3.30;;;;;;;7.80;61.08;96852.34;109144;1273;23812;-83
2023/05/12 01:33:16;;;;;;;4.80;3.40;;;;;;;7.80;60.91;96849.23;109099;1273;22547;-83
2023/05/12 01:35:47;;;;;;;6.20;3.60;;;;;;;7.80;60.90;96850.92;109129;1266;22651;-83
2023/05/12 01:38:18;;;;;;;6.70;3.20;;;;;;;7.80;60.82;96849.08;109160;1250;22522;-83
2023/05/12 01:40:48;;;;;;;5.60;3.00;;;;;;;7.83;60.87;96848.45;109118;1266;22508;-83
2023/05/12 01:43:19;;;;;;;4.40;3.40;;;;;;;7.81;60.66;96849.61;109130;1267;22510;-83
2023/05/12 01:45:53;;;;;;;5.20;3.40;;;;;;;7.79;60.94;96849.86;109160;1273;22582;-83
2023/05/12 01:48:24;;;;;;;4.50;3.30;;;;;;;7.84;60.77;96849.63;109155;1273;23337;-83
2023/05/12 01:50:54;;;;;;;4.10;3.30;;;;;;;7.88;60.79;96846.49;109106;1273;22517;-83
2023/05/12 01:53:28;;;;;;;3.70;3.00;;;;;;;7.91;60.89;96847.25;109123;1273;22508;-83
2023/05/12 01:55:59;;;;;;;4.40;2.90;;;;;;;7.92;60.68;96845.15;109154;1265;22476;-83
2023/05/12 01:58:30;;;;;;;6.50;3.20;;;;;;;7.85;60.74;96845.66;109127;1273;24183;-83
2023/05/12 02:01:01;;;;;;;4.80;3.20;;;;;;;7.75;60.81;96843.35;109096;1265;22709;-83
2023/05/12 02:03:33;;;;;;;4.80;3.10;;;;;;;7.73;61.05;96844.84;109127;1266;22515;-83
2023/05/12 02:06:05;;;;;;;6.50;3.40;;;;;;;7.72;61.23;96842.84;109136;1273;22558;-83
2023/05/12 02:08:36;;;;;;;4.80;3.30;;;;;;;7.74;61.06;96842.51;109153;1268;25227;-83
2023/05/12 02:11:08;;;;;;;5.10;3.10;;;;;;;7.80;61.17;96841.58;109172;1273;22550;-83
2023/05/12 02:13:39;;;;;;;4.20;3.30;;;;;;;7.85;61.04;96840.39;109156;1273;25586;-83
2023/05/12 02:16:10;;;;;;;4.00;3.20;;;;;;;7.86;60.99;96840.17;109112;1269;25408;-83
2023/05/12 02:18:42;;;;;;;4.80;3.30;;;;;;;7.81;60.89;96837.88;109139;1266;22507;-83
2023/05/12 02:21:13;;;;;;;5.20;3.40;;;;;;;7.77;60.98;96837.30;109107;1269;23805;-83
2023/05/12 02:23:46;;;;;;;5.60;3.50;;;;;;;7.78;60.95;96835.02;109134;1266;24206;-83
2023/05/12 02:26:20;;;;;;;4.70;3.60;;;;;;;7.78;60.90;96832.02;109157;1270;22557;-83
2023/05/12 02:28:51;;;;;;;4.30;3.00;;;;;;;7.83;61.06;96829.66;109106;1265;22768;-83
2023/05/12 02:31:21;;;;;;;5.30;3.60;;;;;;;7.86;60.93;96835.48;109122;1273;24222;-83
2023/05/12 02:33:53;;;;;;;4.10;2.90;;;;;;;7.84;61.04;96836.33;109100;1266;22547;-83
2023/05/12 02:36:24;;;;;;;6.10;3.00;;;;;;;7.83;61.02;96837.37;109139;1273;22656;-83
2023/05/12 02:38:54;;;;;;;4.30;2.60;;;;;;;7.83;60.90;96836.37;109167;1273;22559;-83
2023/05/12 02:41:25;;;;;;;6.80;2.90;;;;;;;7.81;60.81;96836.98;109145;1273;22527;-83
2023/05/12 02:43:56;;;;;;;5.50;3.20;;;;;;;7.66;60.92;96835.10;109154;1273;22939;-83
2023/05/12 02:46:27;;;;;;;3.50;2.80;;;;;;;7.57;61.19;96833.66;109132;1270;22546;-83
2023/05/12 02:48:58;;;;;;;4.40;3.20;;;;;;;7.65;61.40;96838.94;109122;1265;22464;-83
2023/05/12 02:51:29;;;;;;;6.30;2.80;;;;;;;7.69;61.25;96837.59;109090;1266;22516;-83
2023/05/12 02:54:03;;;;;;;4.50;2.80;;;;;;;7.74;61.31;96837.80;109192;1273;22990;-83
2023/05/12 02:56:33;;;;;;;4.00;2.90;;;;;;;7.83;61.08;96838.31;109154;1269;24182;-83
2023/05/12 02:59:04;;;;;;;4.30;2.70;;;;;;;7.87;61.00;96837.55;109088;1273;23408;-83
2023/05/12 03:01:35;;;;;;;4.90;3.30;;;;;;;7.91;60.86;96839.23;109128;1270;22501;-83
2023/05/12 03:04:06;;;;;;;5.80;3.10;;;;;;;7.90;60.93;96838.70;109132;1266;22538;-83
2023/05/12 03:06:37;;;;;;;3.80;3.20;;;;;;;7.84;60.85;96835.10;109179;1265;22644;-83
2023/05/12 03:09:08;;;;;;;4.70;2.90;;;;;;;7.79;60.79;96833.82;109102;1267;22825;-83
2023/05/12 03:11:39;;;;;;;5.20;2.80;;;;;;;7.79;60.99;96835.29;109089;1270;26953;-83
2023/05/12 03:14:10;;;;;;;4.00;2.70;;;;;;;7.78;60.93;96830.80;109142;1265;22507;-83
2023/05/12 03:16:41;;;;;;;4.90;2.80;;;;;;;7.81;60.83;96829.06;109172;1269;25414;-83
2023/05/12 03:19:11;;;;;;;3.30;3.00;;;;;;;7.81;60.97;96829.60;109094;1273;25993;-83
2023/05/12 03:21:42;;;;;;;4.90;3.10;;;;;;;7.78;60.96;96827.05;109112;1269;24755;-83
2023/05/12 03:24:15;;;;;;;2.80;2.50;;;;;;;7.77;60.98;96826.41;109175;1273;22556;-84
2023/05/12 03:26:45;;;;;;;4.30;3.10;;;;;;;7.71;61.10;96827.64;109129;1266;22531;-83
2023/05/12 03:29:16;;;;;;;3.00;2.70;;;;;;;7.56;61.19;96825.84;109213;1265;24162;-83
2023/05/12 03:31:47;;;;;;;3.70;2.90;;;;;;;7.50;61.59;96828.76;109201;1271;24226;-83
2023/05/12 03:34:20;;;;;;;4.00;3.20;;;;;;;7.56;61.70;96827.48;109150;1266;22553;-83
2023/05/12 03:36:52;;;;;;;5.00;2.60;;;;;;;7.60;61.90;96831.00;109110;1273;22529;-83
2023/05/12 03:39:23;;;;;;;3.50;2.50;;;;;;;7.59;61.86;96829.60;109165;1266;22669;-83
2023/05/12 03:41:55;;;;;;;3.40;2.70;;;;;;;7.56;61.83;96831.27;109099;1269;22506;-83
2023/05/12 03:44:27;;;;;;;5.40;2.70;;;;;;;7.60;62.25;96828.89;109122;1273;24196;-84
2023/05/12 03:46:59;;;;;;;4.30;2.40;;;;;;;7.68;62.05;96832.85;109130;1273;22518;-84
2023/05/12 03:49:33;;;;;;;5.90;2.60;;;;;;;7.77;62.19;96836.81;109130;1273;24388;-83
2023/05/12 03:52:07;;;;;;;4.80;2.50;;;;;;;7.80;62.21;96836.98;109106;1273;22529;-83
2023/05/12 03:54:41;;;;;;;3.20;2.50;;;;;;;7.84;62.47;96834.36;109114;1266;22565;-84
2023/05/12 03:57:13;;;;;;;3.70;2.60;;;;;;;7.87;62.31;96833.64;109093;1273;22515;-84
2023/05/12 03:59:47;;;;;;;4.20;2.60;;;;;;;7.96;62.51;96832.75;109142;1273;22623;-84
2023/05/12 04:02:23;;;;;;;3.70;2.50;;;;;;;8.05;62.65;96839.14;109161;1273;22460;-83
2023/05/12 04:04:54;;;;;;;5.00;2.90;;;;;;;8.08;62.55;96838.89;108900;1266;220293;-83
2023/05/12 04:07:27;;;;;;;3.90;2.30;;;;;;;8.13;63.21;96845.61;109136;1266;22512;-83
2023/05/12 04:10:00;;;;;;;4.60;3.00;;;;;;;8.11;63.09;96843.34;109137;1271;25275;-83
2023/05/12 04:12:32;;;;;;;4.70;2.80;;;;;;;8.12;63.23;96845.19;109115;1266;22517;-83
2023/05/12 04:15:04;;;;;;;5.20;2.70;;;;;;;8.19;63.57;96848.71;109158;1270;22642;-84
2023/05/12 04:17:38;;;;;;;3.90;2.90;;;;;;;8.31;63.56;96849.46;109152;1273;23654;-83
2023/05/12 04:20:16;;;;;;;4.30;2.70;;;;;;;8.44;64.06;96851.77;109100;1266;22512;-83
2023/05/12 04:22:50;;;;;;;3.60;2.60;;;;;;;8.56;64.22;96849.27;109089;1273;24219;-83
2023/05/12 04:25:25;;;;;;;3.90;2.90;;;;;;;8.70;64.00;96853.06;109115;1266;24339;-83
2023/05/12 04:27:56;;;;;;;3.60;3.00;;;;;;;8.82;64.11;96851.59;109128;1273;22581;-84
2023/05/12 04:30:28;;;;;;;3.50;2.70;;;;;;;8.99;64.55;96854.52;109092;1273;23001;-84
2023/05/12 04:33:01;;;;;;;3.90;3.10;;;;;;;9.17;64.47;96852.17;109132;1250;22563;-84
2023/05/12 04:35:33;;;;;;;2.50;2.30;;;;;;;9.44;64.77;96846.32;109133;1266;22540;-83
2023/05/12 04:38:05;;;;;;;4.20;2.70;;;;;;;9.73;64.16;96844.14;109122;1273;22459;-84
2023/05/12 04:40:37;;;;;;;4.20;2.90;;;;;;;10.04;63.82;96844.67;109085;1273;24007;-84
2023/05/12 04:43:12;;;;;;;3.30;2.50;;;;;;;10.44;63.19;96846.23;109126;1273;24005;-83
2023/05/12 04:45:44;;;;;;;3.20;2.60;;;;;;;10.96;62.54;96842.73;109150;1270;23217;-84
2023/05/12 04:48:16;;;;;;;3.50;2.90;;;;;;;11.86;63.08;96842.30;109138;1273;25390;-84
2023/05/12 04:50:48;;;;;;;5.10;2.80;;;;;;;13.89;61.77;96845.98;109113;1250;24985;-84
2023/05/12 04:53:19;;;;;;;4.60;2.90;;;;;;;16.09;57.36;96841.34;109115;1273;24840;-84
2023/05/12 04:55:51;;;;;;;5.20;2.30;;;;;;;18.26;57.23;96843.12;109156;1249;22552;-84
2023/05/12 04:58:23;;;;;;;5.70;2.60;;;;;;;20.50;54.01;96838.73;109108;1266;25262;-85
2023/05/12 05:00:58;;;;;;;4.50;2.20;;;;;;;22.29;50.70;96844.18;109111;1265;23382;-85
2023/05/12 05:03:30;;;;;;;3.10;2.00;;;;;;;23.78;48.10;96843.04;109132;1266;25428;-85
2023/05/12 05:06:01;;;;;;;4.30;2.30;;;;;;;25.13;45.41;96844.91;109127;1269;24218;-85
2023/05/12 05:08:35;;;;;;;2.50;1.90;;;;;;;25.84;41.28;96845.84;109148;1266;23994;-85
2023/05/12 05:11:10;;;;;;;3.60;2.20;;;;;;;26.80;40.31;96846.00;109093;1267;23773;-85
2023/05/12 05:13:44;;;;;;;3.80;2.50;;;;;;;26.90;31.70;96849.08;109133;1266;25447;-85
2023/05/12 05:16:20;;;;;;;3.40;2.20;;;;;;;25.76;30.68;96849.77;109149;1267;22536;-83
2023/05/12 05:18:53;;;;;;;2.60;2.00;;;;;;;25.37;30.65;96849.75;109091;1273;22539;-83
2023/05/12 05:21:28;;;;;;;3.90;2.40;;;;;;;25.79;32.33;96849.70;109098;1271;25449;-85
2023/05/12 05:24:06;;;;;;;5.60;2.40;;;;;;;26.89;32.67;96851.73;109151;1273;25445;-86
2023/05/12 05:26:37;;;;;;;4.80;2.30;;;;;;;28.02;32.56;96848.40;109120;1273;22510;-85
2023/05/12 05:29:08;;;;;;;4.40;1.90;;;;;;;29.00;32.01;96846.53;109123;1273;24189;-85
2023/05/12 05:32:00;;;;;;;3.30;2.50;;;;;;;29.47;29.80;96845.81;109102;1272;22476;-85
2023/05/12 05:34:32;;;;;;;3.50;2.00;;;;;;;30.21;30.42;96845.20;109106;1266;22511;-85
2023/05/12 05:37:03;;;;;;;4.00;2.20;;;;;;;30.89;28.27;96855.90;109094;1273;22515;-85
2023/05/12 05:39:35;;;;;;;2.70;1.90;;;;;;;30.97;27.96;96852.69;109135;1265;22537;-85
2023/05/12 05:42:06;;;;;;;2.40;1.90;;;;;;;31.67;27.80;96851.10;109132;1268;23471;-85
2023/05/12 05:44:37;;;;;;;2.60;2.20;;;;;;;32.28;27.84;96852.69;109159;1266;22518;-85
2023/05/12 05:47:08;;;;;;;4.00;2.30;;;;;;;33.13;26.98;96853.61;109145;1273;22511;-86
2023/05/12 05:49:39;;;;;;;3.20;2.70;;;;;;;33.67;26.59;96851.41;109118;1266;22535;-86
2023/05/12 05:52:10;;;;;;;3.80;2.30;;;;;;;34.14;24.26;96858.66;109116;1266;22549;-85
2023/05/12 05:54:41;;;;;;;2.90;2.60;;;;;;;34.01;24.80;96855.02;109153;1273;22545;-86
2023/05/12 05:57:12;;;;;;;4.30;2.70;;;;;;;34.64;24.97;96856.26;109126;1269;22523;-86
2023/05/12 05:59:43;;;;;;;2.60;2.40;;;;;;;34.30;21.33;96855.14;109133;1266;24214;-85
2023/05/12 06:02:14;;;;;;;3.90;2.10;;;;;;;33.49;21.88;96860.08;109076;1273;22466;-85
2023/05/12 06:04:45;;;;;;;6.20;2.50;;;;;;;32.98;21.95;96859.84;109160;1259;24183;-86
2023/05/12 06:07:16;;;;;;;2.80;2.10;;;;;;;32.50;21.88;96863.84;109150;1266;25415;-86
2023/05/12 06:09:47;;;;;;;3.30;2.10;;;;;;;32.22;21.81;96863.23;109217;1266;22486;-86
2023/05/12 06:12:18;;;;;;;4.40;1.90;;;;;;;30.82;21.49;96872.72;109108;1273;23778;-83
2023/05/12 06:14:49;;;;;;;4.20;2.00;;;;;;;29.06;22.65;96870.38;109121;1270;22637;-82
2023/05/12 06:17:21;;;;;;;3.80;2.10;;;;;;;27.72;24.02;96872.20;109175;1273;22462;-82
2023/05/12 06:19:52;;;;;;;2.50;2.10;;;;;;;26.91;24.93;96875.88;109087;1273;22519;-82
2023/05/12 06:22:23;;;;;;;3.40;2.00;;;;;;;26.42;26.21;96880.52;109084;1266;22501;-82
2023/05/12 06:24:54;;;;;;;3.10;2.10;;;;;;;26.37;25.83;96880.15;109092;1273;22516;-82
2023/05/12 06:27:25;;;;;;;2.00;1.80;;;;;;;26.08;26.13;96879.14;109078;1271;22536;-83
2023/05/12 06:29:56;;;;;;;5.90;2.10;;;;;;;26.35;26.63;96882.54;109095;1273;23920;-82
2023/05/12 06:32:27;;;;;;;4.00;2.00;;;;;;;26.94;26.66;96880.79;109120;1273;22517;-82
2023/05/12 06:34:58;;;;;;;2.70;1.70;;;;;;;27.68;24.76;96876.19;109093;1265;23001;-82
2023/05/12 06:37:29;;;;;;;2.90;1.70;;;;;;;27.96;24.35;96873.48;109086;1266;25444;-82
2023/05/12 06:40:00;;;;;;;3.00;1.90;;;;;;;28.06;23.85;96877.16;109076;1269;22510;-83
2023/05/12 06:42:31;;;;;;;2.50;1.70;;;;;;;26.48;24.92;96876.04;109054;1273;22527;-82
2023/05/12 06:45:02;;;;;;;3.50;1.90;;;;;;;23.35;28.05;96882.14;109111;1272;22832;-82
2023/05/12 06:47:33;;;;;;;7.00;2.40;;;;;;;21.42;30.84;96885.30;109105;1267;22482;-82
2023/05/12 06:50:05;;;;;;;4.50;2.60;;;;;;;20.35;32.86;96883.73;109125;1269;24379;-82
2023/05/12 06:52:36;;;;;;;2.80;2.00;;;;;;;20.07;33.69;96885.42;109078;1271;25259;-82
2023/05/12 06:55:08;;;;;;;3.30;1.80;;;;;;;20.77;33.59;96880.51;109116;1273;22525;-82
2023/05/12 06:57:39;;;;;;;2.90;1.60;;;;;;;20.50;33.73;96890.24;109129;1255;22514;-83
2023/05/12 07:00:14;;;;;;;3.70;2.10;;;;;;;19.83;35.03;96894.96;109113;1273;24299;-82
2023/05/12 07:02:47;;;;;;;3.40;2.10;;;;;;;19.54;35.24;96894.00;109139;1273;22469;-82
2023/05/12 07:05:18;;;;;;;2.80;2.00;;;;;;;19.17;36.61;96899.50;109100;1262;22511;-82
2023/05/12 07:07:49;;;;;;;5.50;2.30;;;;;;;18.69;36.91;96898.30;109093;1273;22515;-82
2023/05/12 07:10:21;;;;;;;3.60;2.30;;;;;;;18.25;38.22;96901.19;109104;1272;22547;-82
2023/05/12 07:12:52;;;;;;;3.40;2.10;;;;;;;18.09;39.07;96904.73;109082;1266;22590;-82
2023/05/12 07:15:23;;;;;;;4.30;2.20;;;;;;;18.16;39.61;96902.19;109125;1266;22523;-83
2023/05/12 07:17:55;;;;;;;4.50;1.90;;;;;;;18.84;39.23;96903.48;109099;1270;23411;-83
2023/05/12 07:20:26;;;;;;;3.50;1.80;;;;;;;21.55;36.16;96902.56;109127;1273;22519;-83
2023/05/12 07:22:57;;;;;;;2.70;1.70;;;;;;;23.48;31.32;96901.83;109019;1274;22623;-83
2023/05/12 07:25:30;;;;;;;4.20;2.10;;;;;;;23.94;29.86;96899.83;109100;1272;25427;-84
2023/05/12 07:28:03;;;;;;;4.30;1.90;;;;;;;23.79;30.66;96898.23;109078;1272;25417;-83
2023/05/12 07:30:34;;;;;;;2.60;1.90;;;;;;;23.55;29.83;96909.64;109040;1273;22543;-84
2023/05/12 07:33:07;;;;;;;2.00;1.80;;;;;;;23.26;30.36;96906.14;109097;1266;22608;-85
2023/05/12 07:35:39;;;;;;;2.20;1.70;;;;;;;24.63;30.05;96896.95;109113;1273;22522;-86
2023/05/12 07:38:10;;;;;;;3.60;1.60;;;;;;;25.85;26.92;96898.08;109066;1270;22532;-86
2023/05/12 07:40:41;;;;;;;4.00;1.80;;;;;;;26.09;27.03;96905.95;109066;1273;86925;-86
2023/05/12 07:43:12;;;;;;;4.60;2.10;;;;;;;27.10;26.77;96905.93;109102;1269;22530;-86
2023/05/12 07:45:44;;;;;;;3.10;1.70;;;;;;;28.45;25.07;96903.59;109140;1251;22519;-87
2023/05/12 07:48:15;;;;;;;3.60;2.10;;;;;;;28.83;24.50;96900.98;109117;1273;22511;-86
2023/05/12 07:50:47;;;;;;;4.00;1.80;;;;;;;29.28;24.85;96901.17;109115;1272;28476;-86
2023/05/12 07:53:18;;;;;;;3.60;2.20;;;;;;;29.36;23.87;96900.08;109142;1265;22508;-88
2023/05/12 07:55:50;;;;;;;2.50;2.10;;;;;;;28.95;24.38;96905.04;109142;1266;25451;-88
2023/05/12 07:58:23;;;;;;;2.70;1.90;;;;;;;28.41;24.30;96908.80;109101;1261;22527;-87
2023/05/12 08:00:56;;;;;;;2.90;2.10;;;;;;;28.36;25.10;96904.66;109065;1272;23469;-88
2023/05/12 08:03:27;;;;;;;3.00;2.10;;;;;;;28.31;24.20;96907.77;109124;1273;23810;-87
2023/05/12 08:05:58;;;;;;;3.40;2.30;;;;;;;27.70;24.71;96919.00;109123;1266;25233;-86
2023/05/12 08:08:29;;;;;;;2.20;2.00;;;;;;;27.75;25.32;96911.69;109083;1268;25335;-87
2023/05/12 08:11:00;;;;;;;4.00;2.10;;;;;;;27.36;24.89;96912.39;109092;1271;22709;-86
2023/05/12 08:13:31;;;;;;;3.50;2.00;;;;;;;26.57;25.88;96909.30;109092;1269;24209;-87
2023/05/12 08:16:02;;;;;;;3.80;2.10;;;;;;;25.94;27.16;96917.11;109098;1273;22579;-86
2023/05/12 08:18:33;;;;;;;3.60;2.20;;;;;;;25.91;26.78;96916.38;109125;1273;22576;-85
2023/05/12 08:21:04;;;;;;;4.80;2.00;;;;;;;26.74;26.11;96918.39;109073;1266;23269;-87
2023/05/12 08:23:37;;;;;;;6.80;2.60;;;;;;;27.57;24.95;96917.22;109236;1266;22634;-86
2023/05/12 08:26:08;;;;;;;3.70;1.60;;;;;;;28.56;25.21;96915.59;109130;1270;22501;-87
2023/05/12 08:28:39;;;;;;;4.30;1.70;;;;;;;29.24;23.39;96913.91;109252;1273;22491;-86
2023/05/12 08:31:10;;;;;;;3.20;2.10;;;;;;;29.35;22.52;96918.88;109250;1265;25304;-86
2023/05/12 08:33:41;;;;;;;3.30;2.00;;;;;;;28.37;23.20;96921.17;109197;1273;24245;-86
2023/05/12 08:36:12;;;;;;;3.60;2.00;;;;;;;28.33;24.29;96915.71;109178;1266;23815;-86
2023/05/12 08:38:43;;;;;;;4.00;1.80;;;;;;;29.43;23.55;96915.50;109155;1273;22526;-87
2023/05/12 08:41:20;;;;;;;4.10;2.30;;;;;;;29.58;22.28;96911.97;109117;1273;24247;-86
2023/05/12 08:43:53;;;;;;;3.00;1.90;;;;;;;30.07;22.83;96917.48;109221;1271;22594;-86
2023/05/12 08:46:25;;;;;;;3.10;2.20;;;;;;;29.74;21.85;96915.02;109101;1272;22463;-86
2023/05/12 08:48:59;;;;;;;4.20;1.80;;;;;;;29.84;22.39;96915.16;109091;1273;25482;-86
2023/05/12 08:51:33;;;;;;;3.50;1.70;;;;;;;29.53;22.69;96913.14;109106;1273;22571;-85
2023/05/12 08:54:07;;;;;;;2.00;1.70;;;;;;;28.71;22.22;96912.36;109113;1273;22528;-87
2023/05/12 08:56:40;;;;;;;3.70;2.20;;;;;;;27.76;22.43;96916.52;109198;1270;22565;-84
2023/05/12 08:59:11;;;;;;;3.40;1.90;;;;;;;28.33;23.13;96916.26;109161;1269;22661;-85
2023/05/12 09:01:43;;;;;;;2.90;1.90;;;;;;;29.02;23.26;96913.92;109181;1266;22569;-85
2023/05/12 09:04:15;;;;;;;3.50;1.90;;;;;;;28.83;22.18;96920.39;109156;1273;22581;-86
2023/05/12 09:06:47;;;;;;;4.80;2.20;;;;;;;27.49;23.43;96920.34;109136;1273;25414;-86
2023/05/12 09:09:19;;;;;;;5.60;1.60;;;;;;;26.71;23.75;96921.67;109206;1273;22523;-86
2023/05/12 09:11:54;;;;;;;2.80;2.00;;;;;;;23.71;25.41;96929.92;109090;1266;23813;-86
2023/05/12 09:14:26;;;;;;;3.10;1.70;;;;;;;21.05;28.94;96936.44;109179;1273;25414;-87
2023/05/12 09:17:01;;;;;;;2.00;1.70;;;;;;;20.12;30.21;96933.88;109134;1251;22550;-85
2023/05/12 09:19:33;;;;;;;3.20;1.60;;;;;;;19.60;30.67;96931.70;109161;1273;22543;-85
2023/05/12 09:22:04;;;;;;;3.50;1.90;;;;;;;19.07;31.88;96929.28;109141;1273;22569;-85
2023/05/12 09:24:39;;;;;;;1.60;1.30;;;;;;;19.39;32.18;96916.02;109169;1269;22482;-86
2023/05/12 09:27:11;;;;;;;2.90;1.40;;;;;;;19.49;31.37;96925.98;109111;1273;22609;-84
2023/05/12 09:29:51;;;;;;;1.80;1.40;;;;;;;19.25;31.33;96937.20;109119;1272;22512;-84
2023/05/12 09:32:32;;;;;;;2.10;1.50;;;;;;;18.88;31.29;96940.00;109136;1273;23549;-85
2023/05/12 09:35:10;;;;;;;2.70;1.60;;;;;;;18.84;31.97;96941.13;109192;1266;22479;-87
2023/05/12 09:37:42;;;;;;;4.20;2.20;;;;;;;18.58;31.47;96945.89;109118;1273;22514;-80
2023/05/12 09:40:18;;;;;;;2.90;1.80;;;;;;;18.30;32.43;96939.98;109095;1272;22578;-81
2023/05/12 09:42:49;;;;;;;4.80;2.00;;;;;;;18.31;33.54;96942.55;109076;1271;24617;-82
2023/05/12 09:45:21;;;;;;;2.20;1.60;;;;;;;18.41;32.70;96932.82;109136;1273;22665;-83
2023/05/12 09:47:52;;;;;;;2.40;1.60;;;;;;;18.63;32.80;96936.45;109129;1272;22577;-83
2023/05/12 09:50:23;;;;;;;2.60;1.80;;;;;;;18.43;31.51;96933.84;109143;1252;22572;-82
2023/05/12 09:52:59;;;;;;;1.80;1.50;;;;;;;18.18;31.89;96931.64;109078;1273;35516;-83
2023/05/12 09:55:31;;;;;;;2.10;1.70;;;;;;;17.75;33.04;96932.09;109143;1273;22491;-83
2023/05/12 09:58:05;;;;;;;2.50;1.50;;;;;;;17.95;33.65;96932.66;109090;1273;22642;-82
2023/05/12 10:00:39;;;;;;;2.40;1.90;;;;;;;18.16;33.16;96934.23;109109;1273;25543;-83
2023/05/12 10:03:13;;;;;;;2.60;1.50;;;;;;;18.36;33.33;96933.40;109124;1271;22574;-83
2023/05/12 10:05:49;;;;;;;2.90;1.60;;;;;;;18.51;33.38;96930.17;109178;1273;22537;-83
2023/05/12 10:08:24;;;;;;;2.30;2.00;;;;;;;18.51;32.99;96931.62;109161;1273;22465;-82
2023/05/12 10:10:56;;;;;;;4.60;1.60;;;;;;;18.31;34.23;96926.21;109071;1266;22765;-83
2023/05/12 10:13:28;;;;;;;5.30;1.60;;;;;;;18.32;33.63;96924.89;109152;1273;22543;-83
2023/05/12 10:16:00;;;;;;;4.00;2.10;;;;;;;18.31;34.29;96928.84;109090;1273;22525;-83
2023/05/12 10:18:31;;;;;;;3.10;1.80;;;;;;;18.31;34.11;96933.64;109109;1266;25227;-83
2023/05/12 10:21:03;;;;;;;3.50;2.00;;;;;;;18.36;34.38;96930.88;109100;1266;22728;-83
2023/05/12 10:23:35;;;;;;;2.50;2.30;;;;;;;18.63;35.37;96933.83;109152;1250;22540;-83
2023/05/12 10:26:08;;;;;;;4.40;2.10;;;;;;;18.84;34.77;96924.64;109103;1269;23858;-83
2023/05/12 10:28:39;;;;;;;3.10;2.30;;;;;;;18.97;33.98;96928.91;109130;1272;23707;-83
2023/05/12 10:31:12;;;;;;;3.60;1.90;;;;;;;18.78;33.22;96932.37;109089;1273;22554;-83
2023/05/12 10:33:43;;;;;;;3.60;1.80;;;;;;;18.68;33.04;96933.03;109110;1273;22530;-83
2023/05/12 10:36:21;;;;;;;2.60;2.00;;;;;;;18.59;33.30;96928.60;109104;1273;25449;-83
2023/05/12 10:38:53;;;;;;;3.60;1.90;;;;;;;18.50;34.18;96921.90;109203;1273;22498;-82
2023/05/12 10:41:35;;;;;;;3.90;1.80;;;;;;;18.51;32.44;96926.41;109245;1272;22542;-81
2023/05/12 10:44:06;;;;;;;4.00;1.70;;;;;;;18.21;32.13;96923.77;109249;1273;22549;-82
2023/05/12 10:46:38;;;;;;;2.60;1.40;;;;;;;17.94;33.09;96932.30;109302;1270;22493;-82
2023/05/12 10:49:14;;;;;;;4.90;1.90;;;;;;;17.70;33.33;96925.98;109345;1273;22557;-82
2023/05/12 10:51:51;;;;;;;1.90;1.30;;;;;;;17.80;34.45;96923.79;109218;1273;26705;-82
2023/05/12 10:54:25;;;;;;;4.00;1.80;;;;;;;18.09;33.40;96920.05;109163;1273;22507;-82
2023/05/12 10:57:00;;;;;;;3.40;1.20;;;;;;;18.39;34.97;96918.65;109132;1269;22632;-81
2023/05/12 10:59:32;;;;;;;4.80;1.90;;;;;;;18.68;32.88;96926.84;109139;1272;23908;-82
2023/05/12 11:02:05;;;;;;;2.60;1.90;;;;;;;18.32;32.38;96925.33;109097;1273;22523;-81
2023/05/12 11:04:41;;;;;;;2.90;1.70;;;;;;;17.98;32.55;96931.71;109137;1273;25420;-81
2023/05/12 11:07:13;;;;;;;3.30;1.60;;;;;;;17.99;33.86;96932.21;109098;1273;25411;-82
2023/05/12 11:09:46;;;;;;;1.70;1.60;;;;;;;18.03;33.34;96931.02;109096;1273;22529;-81
2023/05/12 11:12:17;;;;;;;3.20;1.40;;;;;;;17.94;32.95;96931.75;109131;1270;23648;-82
2023/05/12 11:14:49;;;;;;;4.30;1.50;;;;;;;17.94;33.78;96931.69;109116;1273;22650;-82
2023/05/12 11:17:20;;;;;;;1.80;1.70;;;;;;;17.87;32.14;96928.55;109118;1273;25444;-81
2023/05/12 11:19:53;;;;;;;2.60;1.60;;;;;;;17.63;32.82;96930.00;109097;1273;22645;-82
2023/05/12 11:22:26;;;;;;;3.10;1.60;;;;;;;17.49;32.57;96920.72;109126;1272;23134;-81
2023/05/12 11:24:57;;;;;;;2.10;1.50;;;;;;;17.47;33.20;96918.63;109134;1273;22532;-82
2023/05/12 11:27:28;;;;;;;3.10;1.70;;;;;;;17.78;34.29;96913.14;109117;1273;24187;-82
2023/05/12 11:30:00;;;;;;;2.00;1.50;;;;;;;18.14;34.93;96909.71;109107;1270;22544;-82
2023/05/12 11:32:31;;;;;;;2.80;1.60;;;;;;;18.12;33.88;96913.61;109075;1272;22549;-82
2023/05/12 11:35:12;;;;;;;2.20;1.30;;;;;;;18.15;33.18;96913.93;109076;1273;22517;-82
2023/05/12 11:37:44;;;;;;;2.90;1.60;;;;;;;18.28;32.80;96925.77;109126;1269;25404;-82
2023/05/12 11:40:20;;;;;;;4.00;2.00;;;;;;;18.15;32.77;96922.24;109072;1269;22477;-82
2023/05/12 11:42:53;;;;;;;3.80;1.60;;;;;;;18.00;33.34;96917.22;109137;1272;24186;-82
2023/05/12 11:45:28;;;;;;;3.90;2.10;;;;;;;17.86;33.44;96916.16;109147;1273;22570;-81
2023/05/12 11:48:10;;;;;;;3.00;1.40;;;;;;;17.90;33.66;96912.94;109090;1273;22670;-81
2023/05/12 11:50:46;;;;;;;3.60;1.80;;;;;;;18.10;34.04;96913.82;109107;1273;22719;-83
2023/05/12 11:53:18;;;;;;;1.90;1.40;;;;;;;18.41;33.46;96906.14;109135;1272;22600;-83